sensor_id;sensor_type;location;lat;lon;timestamp;pressure;altitude;pressure_sealevel;temperature;humidity
10064;BME280;5071;52.360;13.134;2023-03-19T00:04:00;100844.13;;;6.70;92.86
10064;BME280;5071;52.360;13.134;2023-03-19T00:09:04;100845.00;;;6.66;93.03
10064;BME280;5071;52.360;13.134;2023-03-19T00:14:05;100839.66;;;6.56;92.85
10064;BME280;5071;52.360;13.134;2023-03-19T00:19:08;100844.88;;;6.46;92.94
10064;BME280;5071;52.360;13.134;2023-03-19T00:24:11;100850.09;;;6.35;92.77
10064;BME280;5071;52.360;13.134;2023-03-19T00:29:13;100844.81;;;6.35;93.83
10064;BME280;5071;52.360;13.134;2023-03-19T00:34:15;100854.38;;;6.20;93.62
10064;BME280;5071;52.360;13.134;2023-03-19T00:39:18;100841.97;;;6.07;93.36
10064;BME280;5071;52.360;13.134;2023-03-19T00:44:20;100845.50;;;6.05;93.68
10064;BME280;5071;52.360;13.134;2023-03-19T00:49:22;100848.06;;;5.98;93.43
10064;BME280;5071;52.360;13.134;2023-03-19T00:54:25;100860.19;;;5.85;93.87
10064;BME280;5071;52.360;13.134;2023-03-19T00:59:27;100853.19;;;5.84;93.94
10064;BME280;5071;52.360;13.134;2023-03-19T01:04:28;100860.16;;;5.81;93.71
10064;BME280;5071;52.360;13.134;2023-03-19T01:09:32;100856.59;;;5.73;93.94
10064;BME280;5071;52.360;13.134;2023-03-19T01:14:34;100861.81;;;5.70;93.80
10064;BME280;5071;52.360;13.134;2023-03-19T01:19:36;100858.28;;;5.68;94.15
10064;BME280;5071;52.360;13.134;2023-03-19T01:24:39;100855.69;;;5.69;94.09
10064;BME280;5071;52.360;13.134;2023-03-19T01:29:42;100854.78;;;5.67;94.41
10064;BME280;5071;52.360;13.134;2023-03-19T01:34:44;100857.50;;;5.76;94.40
10064;BME280;5071;52.360;13.134;2023-03-19T01:39:49;100869.78;;;5.77;93.04
10064;BME280;5071;52.360;13.134;2023-03-19T01:44:52;100861.03;;;5.78;92.59
10064;BME280;5071;52.360;13.134;2023-03-19T01:49:55;100865.47;;;5.85;92.98
10064;BME280;5071;52.360;13.134;2023-03-19T01:55:00;100850.63;;;5.94;92.27
10064;BME280;5071;52.360;13.134;2023-03-19T02:00:05;100849.84;;;6.04;91.93
10064;BME280;5071;52.360;13.134;2023-03-19T02:05:10;100844.63;;;6.12;91.24
10064;BME280;5071;52.360;13.134;2023-03-19T02:10:15;100847.41;;;6.30;88.28
10064;BME280;5071;52.360;13.134;2023-03-19T02:15:18;100843.94;;;6.33;88.60
10064;BME280;5071;52.360;13.134;2023-03-19T02:20:25;100840.44;;;6.40;88.40
10064;BME280;5071;52.360;13.134;2023-03-19T02:25:34;100844.06;;;6.60;86.36
10064;BME280;5071;52.360;13.134;2023-03-19T02:30:41;100847.63;;;6.63;86.00
10064;BME280;5071;52.360;13.134;2023-03-19T02:35:45;100845.88;;;6.68;86.57
10064;BME280;5071;52.360;13.134;2023-03-19T02:40:54;100841.59;;;6.90;83.71
10064;BME280;5071;52.360;13.134;2023-03-19T02:46:00;100836.34;;;7.04;82.60
10064;BME280;5071;52.360;13.134;2023-03-19T02:51:03;100839.00;;;7.00;83.25
10064;BME280;5071;52.360;13.134;2023-03-19T02:56:06;100846.00;;;6.95;84.68
10064;BME280;5071;52.360;13.134;2023-03-19T03:01:09;100839.88;;;6.95;85.16
10064;BME280;5071;52.360;13.134;2023-03-19T03:06:12;100855.72;;;7.03;83.79
10064;BME280;5071;52.360;13.134;2023-03-19T03:11:14;100846.88;;;6.96;85.05
10064;BME280;5071;52.360;13.134;2023-03-19T03:16:17;100866.22;;;6.87;87.29
10064;BME280;5071;52.360;13.134;2023-03-19T03:21:20;100890.84;;;6.94;86.94
10064;BME280;5071;52.360;13.134;2023-03-19T03:26:22;100904.16;;;7.14;88.02
10064;BME280;5071;52.360;13.134;2023-03-19T03:31:28;100904.13;;;7.05;89.02
10064;BME280;5071;52.360;13.134;2023-03-19T03:36:33;100902.31;;;6.96;90.85
10064;BME280;5071;52.360;13.134;2023-03-19T03:41:35;100898.78;;;6.91;92.10
10064;BME280;5071;52.360;13.134;2023-03-19T03:46:39;100909.28;;;6.85;93.31
10064;BME280;5071;52.360;13.134;2023-03-19T03:51:41;100909.28;;;6.80;94.29
10064;BME280;5071;52.360;13.134;2023-03-19T03:56:43;100909.25;;;6.77;94.57
10064;BME280;5071;52.360;13.134;2023-03-19T04:01:46;100910.97;;;6.72;95.85
10064;BME280;5071;52.360;13.134;2023-03-19T04:06:49;100925.06;;;6.72;97.33
10064;BME280;5071;52.360;13.134;2023-03-19T04:11:53;100933.88;;;6.76;97.50
10064;BME280;5071;52.360;13.134;2023-03-19T04:16:56;100925.09;;;6.80;97.87
10064;BME280;5071;52.360;13.134;2023-03-19T04:21:58;100926.88;;;6.84;96.42
10064;BME280;5071;52.360;13.134;2023-03-19T04:27:00;100909.41;;;7.05;94.99
10064;BME280;5071;52.360;13.134;2023-03-19T04:32:05;100900.72;;;7.30;93.68
10064;BME280;5071;52.360;13.134;2023-03-19T04:37:07;100914.72;;;7.18;96.27
10064;BME280;5071;52.360;13.134;2023-03-19T04:42:09;100912.91;;;7.00;98.57
10064;BME280;5071;52.360;13.134;2023-03-19T04:47:13;100918.13;;;6.94;99.45
10064;BME280;5071;52.360;13.134;2023-03-19T04:52:15;100917.25;;;6.89;100.00
10064;BME280;5071;52.360;13.134;2023-03-19T04:57:17;100904.00;;;6.86;100.00
10064;BME280;5071;52.360;13.134;2023-03-19T05:02:21;100894.31;;;6.82;100.00
10064;BME280;5071;52.360;13.134;2023-03-19T05:07:23;100892.56;;;6.78;100.00
10064;BME280;5071;52.360;13.134;2023-03-19T05:12:25;100888.97;;;6.68;100.00
10064;BME280;5071;52.360;13.134;2023-03-19T05:17:29;100887.16;;;6.59;100.00
10064;BME280;5071;52.360;13.134;2023-03-19T05:22:38;100901.16;;;6.52;100.00
10064;BME280;5071;52.360;13.134;2023-03-19T05:27:41;100895.88;;;6.49;100.00
10064;BME280;5071;52.360;13.134;2023-03-19T05:32:44;100887.97;;;6.46;100.00
10064;BME280;5071;52.360;13.134;2023-03-19T05:37:46;100888.00;;;6.52;100.00
10064;BME280;5071;52.360;13.134;2023-03-19T05:42:49;100882.69;;;6.49;100.00
10064;BME280;5071;52.360;13.134;2023-03-19T05:47:53;100893.22;;;6.49;100.00
10064;BME280;5071;52.360;13.134;2023-03-19T05:52:55;100899.44;;;6.56;100.00
10064;BME280;5071;52.360;13.134;2023-03-19T05:57:58;100912.72;;;6.73;100.00
10064;BME280;5071;52.360;13.134;2023-03-19T06:03:01;100921.59;;;6.82;100.00
10064;BME280;5071;52.360;13.134;2023-03-19T06:08:04;100923.50;;;7.10;100.00
10064;BME280;5071;52.360;13.134;2023-03-19T06:13:06;100950.75;;;7.04;100.00
10064;BME280;5071;52.360;13.134;2023-03-19T06:18:12;100934.97;;;7.13;100.00
10064;BME280;5071;52.360;13.134;2023-03-19T06:23:14;100933.25;;;7.28;99.59
10064;BME280;5071;52.360;13.134;2023-03-19T06:28:17;100940.31;;;7.30;98.64
10064;BME280;5071;52.360;13.134;2023-03-19T06:33:21;100950.03;;;7.40;98.49
10064;BME280;5071;52.360;13.134;2023-03-19T06:38:23;100955.38;;;7.61;98.00
10064;BME280;5071;52.360;13.134;2023-03-19T06:43:25;101013.38;;;7.37;96.70
10064;BME280;5071;52.360;13.134;2023-03-19T06:48:29;101038.09;;;7.52;98.73
10064;BME280;5071;52.360;13.134;2023-03-19T06:53:31;101037.28;;;7.64;98.88
10064;BME280;5071;52.360;13.134;2023-03-19T06:58:34;101015.31;;;7.72;99.53
10064;BME280;5071;52.360;13.134;2023-03-19T07:03:37;101003.88;;;7.79;100.00
10064;BME280;5071;52.360;13.134;2023-03-19T07:08:40;100974.75;;;7.61;100.00
10064;BME280;5071;52.360;13.134;2023-03-19T07:13:42;100995.88;;;7.55;100.00
10064;BME280;5071;52.360;13.134;2023-03-19T07:18:46;100986.22;;;7.58;100.00
10064;BME280;5071;52.360;13.134;2023-03-19T07:23:48;100988.00;;;7.64;100.00
10064;BME280;5071;52.360;13.134;2023-03-19T07:28:50;100982.69;;;7.67;100.00
10064;BME280;5071;52.360;13.134;2023-03-19T07:33:54;100984.47;;;7.74;100.00
10064;BME280;5071;52.360;13.134;2023-03-19T07:38:56;100989.81;;;7.90;100.00
10064;BME280;5071;52.360;13.134;2023-03-19T07:43:59;101009.25;;;8.12;100.00
10064;BME280;5071;52.360;13.134;2023-03-19T07:49:03;101011.94;;;8.24;100.00
10064;BME280;5071;52.360;13.134;2023-03-19T07:54:06;101019.91;;;8.46;100.00
10064;BME280;5071;52.360;13.134;2023-03-19T07:59:08;101056.91;;;8.33;100.00
10064;BME280;5071;52.360;13.134;2023-03-19T08:04:11;101070.09;;;8.16;100.00
10064;BME280;5071;52.360;13.134;2023-03-19T08:09:13;101049.78;;;8.08;100.00
10064;BME280;5071;52.360;13.134;2023-03-19T08:14:15;101050.66;;;8.02;100.00
10064;BME280;5071;52.360;13.134;2023-03-19T08:19:19;101061.16;;;7.90;100.00
10064;BME280;5071;52.360;13.134;2023-03-19T08:24:21;101058.50;;;7.79;100.00
10064;BME280;5071;52.360;13.134;2023-03-19T08:29:23;101015.34;;;7.82;100.00
10064;BME280;5071;52.360;13.134;2023-03-19T08:34:27;101009.16;;;7.84;100.00
10064;BME280;5071;52.360;13.134;2023-03-19T08:39:28;101012.69;;;7.80;100.00
10064;BME280;5071;52.360;13.134;2023-03-19T08:44:31;101004.88;;;8.25;100.00
10064;BME280;5071;52.360;13.134;2023-03-19T08:49:34;101011.97;;;8.75;100.00
10064;BME280;5071;52.360;13.134;2023-03-19T08:54:36;101001.31;;;9.24;99.91
10064;BME280;5071;52.360;13.134;2023-03-19T08:59:38;100995.06;;;9.39;97.66
10064;BME280;5071;52.360;13.134;2023-03-19T09:04:41;100988.81;;;9.57;96.74
10064;BME280;5071;52.360;13.134;2023-03-19T09:09:44;100989.44;;;10.08;96.37
10064;BME280;5071;52.360;13.134;2023-03-19T09:14:46;100991.94;;;10.30;95.33
10064;BME280;5071;52.360;13.134;2023-03-19T09:19:51;100983.84;;;10.53;95.20
10064;BME280;5071;52.360;13.134;2023-03-19T09:24:53;100975.69;;;10.73;93.28
10064;BME280;5071;52.360;13.134;2023-03-19T09:29:55;100992.47;;;10.75;92.99
10064;BME280;5071;52.360;13.134;2023-03-19T09:34:58;101001.88;;;11.12;92.68
10064;BME280;5071;52.360;13.134;2023-03-19T09:40:01;101006.00;;;11.40;92.35
10064;BME280;5071;52.360;13.134;2023-03-19T09:45:03;101000.78;;;11.31;93.58
10064;BME280;5071;52.360;13.134;2023-03-19T09:50:15;101001.53;;;11.41;92.53
10064;BME280;5071;52.360;13.134;2023-03-19T09:55:33;101000.34;;;12.33;87.39
10064;BME280;5071;52.360;13.134;2023-03-19T10:00:37;101005.72;;;12.30;86.60
10064;BME280;5071;52.360;13.134;2023-03-19T10:05:50;101001.41;;;12.21;88.41
10064;BME280;5071;52.360;13.134;2023-03-19T10:11:08;101004.97;;;12.76;85.43
10064;BME280;5071;52.360;13.134;2023-03-19T10:16:18;100999.97;;;13.54;79.32
10064;BME280;5071;52.360;13.134;2023-03-19T10:21:28;101006.56;;;13.80;80.21
10064;BME280;5071;52.360;13.134;2023-03-19T10:26:34;100995.78;;;15.30;73.05
10064;BME280;5071;52.360;13.134;2023-03-19T10:31:41;101011.59;;;15.39;70.92
10064;BME280;5071;52.360;13.134;2023-03-19T10:36:46;101021.81;;;14.53;73.35
10064;BME280;5071;52.360;13.134;2023-03-19T10:41:50;101020.06;;;14.88;73.22
10064;BME280;5071;52.360;13.134;2023-03-19T10:46:58;101012.03;;;14.14;76.27
10064;BME280;5071;52.360;13.134;2023-03-19T10:52:20;101018.38;;;14.09;76.30
10064;BME280;5071;52.360;13.134;2023-03-19T10:57:25;101028.00;;;13.75;77.67
10064;BME280;5071;52.360;13.134;2023-03-19T11:02:29;101028.41;;;13.97;77.66
10064;BME280;5071;52.360;13.134;2023-03-19T11:07:34;101024.69;;;14.06;77.30
10064;BME280;5071;52.360;13.134;2023-03-19T11:12:37;101018.44;;;14.06;76.93
10064;BME280;5071;52.360;13.134;2023-03-19T11:17:44;101015.00;;;13.58;77.65
10064;BME280;5071;52.360;13.134;2023-03-19T11:22:48;101009.31;;;13.75;78.86
10064;BME280;5071;52.360;13.134;2023-03-19T11:27:57;101010.19;;;13.32;79.33
10064;BME280;5071;52.360;13.134;2023-03-19T11:33:20;101005.75;;;13.76;78.55
10064;BME280;5071;52.360;13.134;2023-03-19T11:38:34;101006.53;;;13.82;78.48
10064;BME280;5071;52.360;13.134;2023-03-19T11:43:43;100997.16;;;14.03;76.84
10064;BME280;5071;52.360;13.134;2023-03-19T11:49:06;101001.25;;;14.19;76.99
10064;BME280;5071;52.360;13.134;2023-03-19T11:54:20;100985.19;;;14.58;75.75
10064;BME280;5071;52.360;13.134;2023-03-19T11:59:31;100987.00;;;14.56;75.61
10064;BME280;5071;52.360;13.134;2023-03-19T12:04:53;100988.78;;;14.57;76.36
10064;BME280;5071;52.360;13.134;2023-03-19T12:10:15;101003.38;;;14.80;75.04
10064;BME280;5071;52.360;13.134;2023-03-19T12:15:25;100993.25;;;15.24;73.77
10064;BME280;5071;52.360;13.134;2023-03-19T12:20:38;100992.16;;;15.64;72.00
10064;BME280;5071;52.360;13.134;2023-03-19T12:25:50;100986.09;;;15.88;71.90
10064;BME280;5071;52.360;13.134;2023-03-19T12:31:12;100996.28;;;16.33;69.74
10064;BME280;5071;52.360;13.134;2023-03-19T12:36:22;100993.53;;;16.90;67.77
10064;BME280;5071;52.360;13.134;2023-03-19T12:41:28;100980.13;;;16.90;68.09
10064;BME280;5071;52.360;13.134;2023-03-19T12:46:32;100982.50;;;16.99;65.44
10064;BME280;5071;52.360;13.134;2023-03-19T12:51:39;100975.16;;;17.29;66.94
10064;BME280;5071;52.360;13.134;2023-03-19T12:56:48;100966.34;;;17.26;66.77
10064;BME280;5071;52.360;13.134;2023-03-19T13:01:58;100967.63;;;17.39;66.24
10064;BME280;5071;52.360;13.134;2023-03-19T13:07:06;100981.22;;;17.09;65.88
10064;BME280;5071;52.360;13.134;2023-03-19T13:12:16;100965.31;;;17.54;64.45
10064;BME280;5071;52.360;13.134;2023-03-19T13:17:24;100963.84;;;17.45;65.82
10064;BME280;5071;52.360;13.134;2023-03-19T13:22:31;100969.31;;;16.93;66.23
10064;BME280;5071;52.360;13.134;2023-03-19T13:27:37;100971.91;;;16.95;65.89
10064;BME280;5071;52.360;13.134;2023-03-19T13:32:40;100963.06;;;16.66;65.12
10064;BME280;5071;52.360;13.134;2023-03-19T13:37:44;100958.50;;;16.95;65.21
10064;BME280;5071;52.360;13.134;2023-03-19T13:42:56;100948.50;;;17.25;63.52
10064;BME280;5071;52.360;13.134;2023-03-19T13:48:22;100947.44;;;17.53;61.79
10064;BME280;5071;52.360;13.134;2023-03-19T13:53:38;100942.44;;;17.43;60.19
10064;BME280;5071;52.360;13.134;2023-03-19T13:58:48;100946.75;;;17.24;60.90
10064;BME280;5071;52.360;13.134;2023-03-19T14:03:54;100937.88;;;17.69;58.80
10064;BME280;5071;52.360;13.134;2023-03-19T14:08:57;100931.16;;;17.81;59.06
10064;BME280;5071;52.360;13.134;2023-03-19T14:14:03;100937.19;;;17.40;57.13
10064;BME280;5071;52.360;13.134;2023-03-19T14:19:10;100930.22;;;17.58;57.21
10064;BME280;5071;52.360;13.134;2023-03-19T14:24:28;100930.13;;;17.38;57.64
10064;BME280;5071;52.360;13.134;2023-03-19T14:29:52;100922.78;;;17.19;56.80
10064;BME280;5071;52.360;13.134;2023-03-19T14:34:56;100923.34;;;17.51;57.36
10064;BME280;5071;52.360;13.134;2023-03-19T14:40:06;100928.56;;;17.56;55.94
10064;BME280;5071;52.360;13.134;2023-03-19T14:45:49;100923.53;;;17.70;57.15
10064;BME280;5071;52.360;13.134;2023-03-19T14:56:30;100929.81;;;17.45;56.92
10064;BME280;5071;52.360;13.134;2023-03-19T15:01:38;100927.28;;;17.42;56.99
10064;BME280;5071;52.360;13.134;2023-03-19T15:06:42;100916.50;;;17.44;56.95
10064;BME280;5071;52.360;13.134;2023-03-19T15:12:22;100925.50;;;17.18;56.60
10064;BME280;5071;52.360;13.134;2023-03-19T15:17:30;100920.34;;;17.37;56.64
10064;BME280;5071;52.360;13.134;2023-03-19T15:22:33;100923.50;;;17.23;57.31
10064;BME280;5071;52.360;13.134;2023-03-19T15:27:35;100920.06;;;16.96;56.83
10064;BME280;5071;52.360;13.134;2023-03-19T15:32:39;100920.31;;;16.88;56.45
10064;BME280;5071;52.360;13.134;2023-03-19T15:38:06;100925.78;;;16.85;55.90
10064;BME280;5071;52.360;13.134;2023-03-19T15:43:10;100933.72;;;16.88;56.43
10064;BME280;5071;52.360;13.134;2023-03-19T15:48:18;100934.25;;;16.73;56.26
10064;BME280;5071;52.360;13.134;2023-03-19T15:53:23;100929.16;;;16.65;55.95
10064;BME280;5071;52.360;13.134;2023-03-19T15:58:29;100930.47;;;16.51;56.33
10064;BME280;5071;52.360;13.134;2023-03-19T16:03:36;100933.41;;;16.17;57.50
10064;BME280;5071;52.360;13.134;2023-03-19T16:08:45;100930.75;;;15.89;58.84
10064;BME280;5071;52.360;13.134;2023-03-19T16:13:55;100932.16;;;15.71;59.53
10064;BME280;5071;52.360;13.134;2023-03-19T16:19:02;100935.13;;;15.62;59.92
10064;BME280;5071;52.360;13.134;2023-03-19T16:24:13;100945.28;;;15.50;60.48
10064;BME280;5071;52.360;13.134;2023-03-19T16:29:22;100943.59;;;15.46;60.65
10064;BME280;5071;52.360;13.134;2023-03-19T16:34:29;100948.94;;;15.46;61.31
10064;BME280;5071;52.360;13.134;2023-03-19T16:39:35;100948.25;;;15.40;62.10
10064;BME280;5071;52.360;13.134;2023-03-19T16:44:39;100949.34;;;15.32;62.04
10064;BME280;5071;52.360;13.134;2023-03-19T16:49:45;100950.00;;;15.09;62.68
10064;BME280;5071;52.360;13.134;2023-03-19T16:54:47;100963.72;;;14.95;63.36
10064;BME280;5071;52.360;13.134;2023-03-19T16:59:49;100961.75;;;14.69;64.81
10064;BME280;5071;52.360;13.134;2023-03-19T17:04:53;100963.25;;;14.45;66.26
10064;BME280;5071;52.360;13.134;2023-03-19T17:09:55;100965.78;;;14.14;67.18
10064;BME280;5071;52.360;13.134;2023-03-19T17:14:56;100960.06;;;13.90;69.16
10064;BME280;5071;52.360;13.134;2023-03-19T17:20:00;100970.47;;;13.62;70.34
10064;BME280;5071;52.360;13.134;2023-03-19T17:25:02;100977.31;;;13.32;71.98
10064;BME280;5071;52.360;13.134;2023-03-19T17:30:05;100980.50;;;13.02;73.77
10064;BME280;5071;52.360;13.134;2023-03-19T17:35:14;100980.19;;;12.71;76.73
10064;BME280;5071;52.360;13.134;2023-03-19T17:40:18;100985.88;;;12.50;79.01
10064;BME280;5071;52.360;13.134;2023-03-19T17:45:23;100990.75;;;12.21;79.53
10064;BME280;5071;52.360;13.134;2023-03-19T17:50:29;100996.28;;;12.09;80.42
10064;BME280;5071;52.360;13.134;2023-03-19T17:55:32;101000.03;;;11.94;81.54
10064;BME280;5071;52.360;13.134;2023-03-19T18:00:34;101009.72;;;11.98;81.20
10064;BME280;5071;52.360;13.134;2023-03-19T18:05:38;101008.75;;;12.04;81.33
10064;BME280;5071;52.360;13.134;2023-03-19T18:10:40;101005.28;;;11.97;82.18
10064;BME280;5071;52.360;13.134;2023-03-19T18:15:43;101015.16;;;11.86;82.48
10064;BME280;5071;52.360;13.134;2023-03-19T18:20:48;101016.19;;;11.76;82.88
10064;BME280;5071;52.360;13.134;2023-03-19T18:25:51;101018.97;;;11.66;84.39
10064;BME280;5071;52.360;13.134;2023-03-19T18:30:54;101021.63;;;11.68;84.66
10064;BME280;5071;52.360;13.134;2023-03-19T18:36:01;101025.97;;;11.74;85.14
10064;BME280;5071;52.360;13.134;2023-03-19T18:41:04;101031.09;;;11.89;84.07
10064;BME280;5071;52.360;13.134;2023-03-19T18:46:08;101023.97;;;11.94;83.96
10064;BME280;5071;52.360;13.134;2023-03-19T18:51:14;101023.00;;;12.01;83.28
10064;BME280;5071;52.360;13.134;2023-03-19T18:56:20;101020.41;;;11.95;83.54
10064;BME280;5071;52.360;13.134;2023-03-19T19:01:24;101030.22;;;11.89;83.92
10064;BME280;5071;52.360;13.134;2023-03-19T19:06:29;101038.25;;;11.84;85.57
10064;BME280;5071;52.360;13.134;2023-03-19T19:11:48;101043.53;;;11.87;85.59
10064;BME280;5071;52.360;13.134;2023-03-19T19:16:51;101038.19;;;11.89;85.17
10064;BME280;5071;52.360;13.134;2023-03-19T19:21:56;101039.00;;;11.98;83.26
10064;BME280;5071;52.360;13.134;2023-03-19T19:26:58;101045.00;;;12.13;82.02
10064;BME280;5071;52.360;13.134;2023-03-19T19:32:01;101053.84;;;12.16;81.66
10064;BME280;5071;52.360;13.134;2023-03-19T19:37:08;101062.59;;;12.23;80.87
10064;BME280;5071;52.360;13.134;2023-03-19T19:42:17;101064.19;;;12.36;79.34
10064;BME280;5071;52.360;13.134;2023-03-19T19:47:20;101057.97;;;12.36;79.42
10064;BME280;5071;52.360;13.134;2023-03-19T19:52:24;101062.38;;;12.38;78.93
10064;BME280;5071;52.360;13.134;2023-03-19T19:57:26;101072.97;;;12.41;78.62
10064;BME280;5071;52.360;13.134;2023-03-19T20:02:28;101075.69;;;12.38;79.29
10064;BME280;5071;52.360;13.134;2023-03-19T20:07:33;101076.72;;;12.28;79.42
10064;BME280;5071;52.360;13.134;2023-03-19T20:12:35;101073.31;;;12.18;80.37
10064;BME280;5071;52.360;13.134;2023-03-19T20:17:38;101082.25;;;12.13;80.71
10064;BME280;5071;52.360;13.134;2023-03-19T20:22:42;101080.59;;;12.05;81.10
10064;BME280;5071;52.360;13.134;2023-03-19T20:27:45;101078.91;;;11.97;81.91
10064;BME280;5071;52.360;13.134;2023-03-19T20:32:48;101084.31;;;11.92;82.17
10064;BME280;5071;52.360;13.134;2023-03-19T20:37:53;101071.97;;;11.82;82.92
10064;BME280;5071;52.360;13.134;2023-03-19T20:42:56;101095.88;;;11.83;83.69
10064;BME280;5071;52.360;13.134;2023-03-19T20:47:58;101090.59;;;11.80;84.08
10064;BME280;5071;52.360;13.134;2023-03-19T20:53:02;101088.88;;;11.76;84.58
10064;BME280;5071;52.360;13.134;2023-03-19T20:58:16;101087.19;;;11.69;85.04
10064;BME280;5071;52.360;13.134;2023-03-19T21:03:23;101089.03;;;11.62;85.95
10064;BME280;5071;52.360;13.134;2023-03-19T21:08:30;101096.19;;;11.57;86.66
10064;BME280;5071;52.360;13.134;2023-03-19T21:13:35;101088.31;;;11.48;87.46
10064;BME280;5071;52.360;13.134;2023-03-19T21:18:37;101088.41;;;11.39;88.04
10064;BME280;5071;52.360;13.134;2023-03-19T21:23:44;101093.75;;;11.36;88.47
10064;BME280;5071;52.360;13.134;2023-03-19T21:28:50;101094.63;;;11.38;88.76
10064;BME280;5071;52.360;13.134;2023-03-19T21:33:52;101091.97;;;11.38;88.67
10064;BME280;5071;52.360;13.134;2023-03-19T21:38:57;101084.00;;;11.38;89.06
10064;BME280;5071;52.360;13.134;2023-03-19T21:44:01;101077.81;;;11.36;89.01
10064;BME280;5071;52.360;13.134;2023-03-19T21:49:05;101076.09;;;11.28;89.02
10064;BME280;5071;52.360;13.134;2023-03-19T21:54:12;101081.50;;;11.21;89.69
10064;BME280;5071;52.360;13.134;2023-03-19T21:59:18;101075.34;;;11.14;89.79
10064;BME280;5071;52.360;13.134;2023-03-19T22:04:20;101082.47;;;11.09;90.13
10064;BME280;5071;52.360;13.134;2023-03-19T22:09:23;101074.63;;;10.98;90.37
10064;BME280;5071;52.360;13.134;2023-03-19T22:14:25;101074.66;;;10.92;91.16
10064;BME280;5071;52.360;13.134;2023-03-19T22:19:27;101071.19;;;10.84;91.45
10064;BME280;5071;52.360;13.134;2023-03-19T22:24:31;101077.34;;;10.89;91.84
10064;BME280;5071;52.360;13.134;2023-03-19T22:29:33;101064.94;;;10.89;91.67
10064;BME280;5071;52.360;13.134;2023-03-19T22:34:36;101074.69;;;10.91;92.05
10064;BME280;5071;52.360;13.134;2023-03-19T22:39:39;101066.72;;;10.91;92.13
10064;BME280;5071;52.360;13.134;2023-03-19T22:44:41;101072.91;;;10.89;92.12
10064;BME280;5071;52.360;13.134;2023-03-19T22:49:44;101064.97;;;10.86;92.48
10064;BME280;5071;52.360;13.134;2023-03-19T22:54:47;101065.88;;;10.82;92.47
10064;BME280;5071;52.360;13.134;2023-03-19T22:59:49;101058.84;;;10.75;93.17
10064;BME280;5071;52.360;13.134;2023-03-19T23:04:52;101062.50;;;10.66;93.48
10064;BME280;5071;52.360;13.134;2023-03-19T23:09:55;101058.13;;;10.59;93.53
10064;BME280;5071;52.360;13.134;2023-03-19T23:15:00;101053.78;;;10.46;93.46
10064;BME280;5071;52.360;13.134;2023-03-19T23:20:10;101062.69;;;10.28;93.91
10064;BME280;5071;52.360;13.134;2023-03-19T23:25:16;101063.75;;;10.01;94.85
10064;BME280;5071;52.360;13.134;2023-03-19T23:30:22;101068.25;;;9.77;96.37
10064;BME280;5071;52.360;13.134;2023-03-19T23:35:26;101071.88;;;9.56;97.75
10064;BME280;5071;52.360;13.134;2023-03-19T23:40:31;101067.50;;;9.37;98.70
10064;BME280;5071;52.360;13.134;2023-03-19T23:45:36;101069.31;;;9.16;99.06
10064;BME280;5071;52.360;13.134;2023-03-19T23:50:39;101064.00;;;9.14;99.07
10064;BME280;5071;52.360;13.134;2023-03-19T23:55:42;101064.88;;;9.15;99.14
